Terminal Aerodrome Forecast
Issued by NWS Cleveland, OH

Home | Current Version | Previous Version | Graphics & Text | Print | Product List | Glossary On
Versions: 1 2 3 4 5 6 7 8 9 10 11 12 13 14 15 16 17 18 19
976
FTUS41 KCLE 010532
TAFMFD
TAF
KMFD 010532Z 0106/0206 25012G18KT P6SM SCT015 OVC025
     FM011600 24015G25KT P6SM BKN025 OVC040=

USA.gov is the U.S. government's official web portal to all federal, state and local government web resources and services.